createdAt,value
2019-02-18T00:00:32.721Z,25.20
2019-02-18T00:01:34.340Z,25.28
2019-02-18T00:02:35.449Z,25.20
2019-02-18T00:03:36.567Z,25.32
2019-02-18T00:04:37.790Z,25.30
2019-02-18T00:05:38.921Z,25.18
2019-02-18T00:06:40.033Z,25.19
2019-02-18T00:07:41.141Z,25.22
2019-02-18T00:08:42.256Z,25.28
2019-02-18T00:09:43.374Z,25.23
2019-02-18T00:10:44.500Z,25.25
2019-02-18T00:11:45.619Z,25.30
2019-02-18T00:12:46.730Z,25.25
2019-02-18T00:13:47.846Z,25.33
2019-02-18T00:14:48.965Z,25.34
2019-02-18T00:15:50.205Z,25.37
2019-02-18T00:16:51.633Z,25.36
2019-02-18T00:17:52.737Z,25.33
2019-02-18T00:18:53.856Z,25.27
2019-02-18T00:19:54.976Z,25.37
2019-02-18T00:20:56.109Z,25.33
2019-02-18T00:21:57.225Z,25.29
2019-02-18T00:22:58.441Z,25.35
2019-02-18T00:23:59.555Z,25.37
2019-02-18T00:25:00.679Z,25.36
2019-02-18T00:26:01.805Z,25.29
2019-02-18T00:27:02.918Z,25.38
2019-02-18T00:28:04.140Z,25.43
2019-02-18T00:29:05.251Z,25.42
2019-02-18T00:30:07.484Z,25.41
2019-02-18T00:31:08.741Z,25.41
2019-02-18T00:32:09.860Z,25.45
2019-02-18T00:33:11.095Z,25.34
2019-02-18T00:34:12.321Z,25.34
2019-02-18T00:35:13.437Z,25.30
2019-02-18T00:36:14.751Z,25.42
2019-02-18T00:37:24.181Z,25.39
2019-02-18T00:38:18.985Z,25.35
2019-02-18T00:39:20.100Z,25.40
2019-02-18T00:40:21.318Z,25.36
2019-02-18T00:41:22.580Z,25.33
2019-02-18T00:42:23.796Z,25.33
2019-02-18T00:43:24.914Z,25.33
2019-02-18T00:44:26.133Z,25.37
2019-02-18T00:45:27.246Z,25.35
2019-02-18T00:46:28.374Z,25.28
2019-02-18T00:47:30.026Z,25.38
2019-02-18T00:48:31.241Z,25.41
2019-02-18T00:49:32.355Z,25.38
2019-02-18T00:50:33.577Z,25.39
2019-02-18T00:51:34.713Z,25.44
2019-02-18T00:52:35.825Z,25.54
2019-02-18T00:53:37.041Z,25.54
2019-02-18T00:54:38.156Z,25.54
2019-02-18T00:55:39.378Z,25.40
2019-02-18T00:56:40.505Z,25.54
2019-02-18T00:57:41.625Z,25.49
2019-02-18T00:58:43.782Z,25.49
2019-02-18T00:59:45.072Z,25.54
2019-02-18T01:00:46.182Z,25.53
2019-02-18T01:01:47.317Z,25.46
2019-02-18T01:02:48.473Z,25.40
2019-02-18T01:03:49.587Z,25.39
2019-02-18T01:04:50.701Z,25.47
2019-02-18T01:05:51.921Z,25.46
2019-02-18T01:06:53.177Z,25.47
2019-02-18T01:07:54.296Z,25.54
2019-02-18T01:08:55.408Z,25.59
2019-02-18T01:09:56.629Z,25.58
2019-02-18T01:10:57.845Z,25.51
2019-02-18T01:11:58.978Z,25.54
2019-02-18T01:13:00.090Z,25.55
2019-02-18T01:14:01.305Z,25.56
2019-02-18T01:15:04.322Z,25.60
2019-02-18T01:16:05.435Z,25.64
2019-02-18T01:17:06.563Z,25.62
2019-02-18T01:18:07.671Z,25.66
2019-02-18T01:19:08.784Z,25.69
2019-02-18T01:20:11.701Z,25.69
2019-02-18T01:21:12.918Z,25.65
2019-02-18T01:22:14.065Z,25.72
2019-02-18T01:23:15.173Z,25.64
2019-02-18T01:24:16.299Z,25.63
2019-02-18T01:25:17.407Z,25.64
2019-02-18T01:26:18.617Z,25.66
2019-02-18T01:27:19.751Z,25.67
2019-02-18T01:28:20.865Z,25.70
2019-02-18T01:29:22.077Z,25.62
2019-02-18T01:30:23.196Z,25.66
2019-02-18T01:31:24.314Z,25.61
2019-02-18T01:32:25.444Z,25.56
2019-02-18T01:33:26.592Z,25.55
2019-02-18T01:34:27.694Z,25.49
2019-02-18T01:35:28.809Z,25.55
2019-02-18T01:36:30.044Z,25.45
2019-02-18T01:37:31.175Z,25.46
2019-02-18T01:38:32.288Z,25.49
2019-02-18T01:39:33.407Z,25.53
2019-02-18T01:40:34.630Z,25.55
2019-02-18T01:41:35.858Z,25.59
2019-02-18T01:42:36.988Z,25.55
2019-02-18T01:43:38.102Z,25.53
2019-02-18T01:44:39.221Z,25.56
2019-02-18T01:45:40.438Z,25.55
2019-02-18T01:46:41.550Z,25.52
2019-02-18T01:47:42.670Z,25.54
2019-02-18T01:48:43.896Z,25.60
2019-02-18T01:49:45.014Z,25.52
2019-02-18T01:50:46.128Z,25.55
2019-02-18T01:51:47.355Z,25.48
2019-02-18T01:52:48.481Z,25.52
2019-02-18T01:53:49.601Z,25.52
2019-02-18T01:54:50.714Z,25.55
2019-02-18T01:55:51.828Z,25.61
2019-02-18T01:56:52.947Z,25.62
2019-02-18T01:57:54.076Z,25.62
2019-02-18T01:58:55.195Z,25.67
2019-02-18T01:59:56.436Z,25.74
2019-02-18T02:00:57.552Z,25.70
2019-02-18T02:01:58.668Z,25.67
2019-02-18T02:02:59.801Z,25.70
2019-02-18T02:04:01.022Z,25.68
2019-02-18T02:05:03.533Z,25.72
2019-02-18T02:06:04.654Z,25.73
2019-02-18T02:07:05.868Z,25.74
2019-02-18T02:08:07.091Z,25.73
2019-02-18T02:09:10.007Z,25.70
2019-02-18T02:10:13.129Z,25.68
2019-02-18T02:11:14.249Z,25.74
2019-02-18T02:12:15.358Z,25.71
2019-02-18T02:13:25.281Z,25.71
2019-02-18T02:14:26.506Z,25.72
2019-02-18T02:15:27.622Z,25.74
2019-02-18T02:16:28.732Z,25.75
2019-02-18T02:17:29.847Z,25.71
2019-02-18T02:18:30.980Z,25.80
2019-02-18T02:19:32.113Z,25.82
2019-02-18T02:20:33.629Z,25.88
2019-02-18T02:21:34.741Z,25.86
2019-02-18T02:22:35.962Z,25.85
2019-02-18T02:23:37.196Z,25.87
2019-02-18T02:24:38.413Z,25.87
2019-02-18T02:25:39.524Z,25.82
2019-02-18T02:26:40.652Z,25.84
2019-02-18T02:27:41.787Z,25.82
2019-02-18T02:28:42.940Z,25.88
2019-02-18T02:29:44.058Z,25.83
2019-02-18T02:30:45.271Z,25.91
2019-02-18T02:31:46.378Z,25.89
2019-02-18T02:32:47.495Z,25.83
2019-02-18T02:33:48.640Z,25.87
2019-02-18T02:34:49.758Z,25.82
2019-02-18T02:35:50.874Z,25.82
2019-02-18T02:36:52.082Z,25.86
2019-02-18T02:37:53.197Z,25.88
2019-02-18T02:38:54.356Z,25.81
2019-02-18T02:39:55.504Z,25.79
2019-02-18T02:40:56.590Z,25.70
2019-02-18T02:41:57.708Z,25.72
2019-02-18T02:42:58.930Z,25.70
2019-02-18T02:44:00.053Z,25.74
2019-02-18T02:45:01.167Z,25.75
2019-02-18T02:46:02.286Z,25.75
2019-02-18T02:47:03.400Z,25.85
2019-02-18T02:48:04.511Z,25.86
2019-02-18T02:49:05.636Z,25.76
2019-02-18T02:50:07.258Z,25.77
2019-02-18T02:51:08.374Z,25.73
2019-02-18T02:52:09.499Z,25.73
2019-02-18T02:53:10.714Z,25.79
2019-02-18T02:54:11.978Z,25.77
2019-02-18T02:55:13.192Z,25.82
2019-02-18T02:56:14.802Z,25.85
2019-02-18T02:57:15.913Z,25.93
2019-02-18T02:58:17.127Z,25.85
2019-02-18T02:59:18.360Z,25.73
2019-02-18T03:00:19.484Z,25.80
2019-02-18T03:01:20.697Z,25.91
2019-02-18T03:02:21.808Z,25.95
2019-02-18T03:03:22.923Z,25.90
2019-02-18T03:04:24.062Z,25.96
2019-02-18T03:05:25.164Z,25.92
2019-02-18T03:06:26.282Z,25.93
2019-02-18T03:07:27.498Z,25.96
2019-02-18T03:08:28.616Z,25.95
2019-02-18T03:09:29.869Z,25.87
2019-02-18T03:10:30.985Z,25.89
2019-02-18T03:11:32.105Z,26.03
2019-02-18T03:12:33.222Z,25.97
2019-02-18T03:13:34.343Z,26.02
2019-02-18T03:14:35.477Z,25.96
2019-02-18T03:15:36.595Z,25.96
2019-02-18T03:16:37.812Z,26.01
2019-02-18T03:17:38.925Z,25.99
2019-02-18T03:18:40.136Z,25.95
2019-02-18T03:19:41.293Z,25.91
2019-02-18T03:20:42.401Z,25.93
2019-02-18T03:21:43.506Z,25.94
2019-02-18T03:22:44.722Z,25.98
2019-02-18T03:23:45.832Z,25.93
2019-02-18T03:25:18.818Z,25.90
2019-02-18T03:26:19.928Z,25.89
2019-02-18T03:27:21.617Z,25.89
2019-02-18T03:28:28.966Z,25.98
2019-02-18T03:29:42.789Z,26.00
2019-02-18T03:30:50.252Z,26.02
2019-02-18T03:31:51.364Z,26.04
2019-02-18T03:32:52.554Z,25.94
2019-02-18T03:34:03.099Z,26.00
2019-02-18T03:35:04.409Z,26.00
2019-02-18T03:36:05.543Z,26.03
2019-02-18T03:37:06.945Z,26.07
2019-02-18T03:38:08.060Z,26.01
2019-02-18T03:39:09.182Z,26.01
2019-02-18T03:40:10.294Z,26.01
2019-02-18T03:41:11.424Z,25.96
2019-02-18T03:42:12.643Z,26.00
2019-02-18T03:43:13.751Z,25.96
2019-02-18T03:44:14.866Z,25.99
2019-02-18T03:45:15.986Z,26.01
2019-02-18T03:46:17.113Z,25.92
2019-02-18T03:47:18.342Z,25.94
2019-02-18T03:48:19.570Z,25.96
2019-02-18T03:49:20.681Z,25.93
2019-02-18T03:50:21.794Z,25.95
2019-02-18T03:51:22.925Z,25.99
2019-02-18T03:52:24.039Z,25.92
2019-02-18T03:53:25.155Z,25.96
2019-02-18T03:54:29.423Z,25.95
2019-02-18T03:55:30.536Z,25.95
2019-02-18T03:56:31.663Z,25.98
2019-02-18T03:57:32.868Z,25.97
2019-02-18T03:58:34.374Z,25.93
2019-02-18T03:59:35.597Z,26.00
2019-02-18T04:00:36.711Z,26.03
2019-02-18T04:01:38.129Z,26.01
2019-02-18T04:02:39.241Z,26.02
2019-02-18T04:03:40.361Z,26.06
2019-02-18T04:04:41.580Z,26.05
2019-02-18T04:05:42.693Z,26.00
2019-02-18T04:06:43.814Z,25.98
2019-02-18T04:07:44.931Z,26.02
2019-02-18T04:08:46.047Z,26.04
2019-02-18T04:09:47.269Z,26.12
2019-02-18T04:10:48.388Z,26.09
2019-02-18T04:11:49.654Z,26.06
2019-02-18T04:12:50.775Z,26.12
2019-02-18T04:13:51.889Z,26.00
2019-02-18T04:14:53.006Z,26.01
2019-02-18T04:15:54.126Z,26.04
2019-02-18T04:16:55.252Z,26.07
2019-02-18T04:17:56.369Z,26.09
2019-02-18T04:18:57.484Z,26.09
2019-02-18T04:19:58.710Z,26.08
2019-02-18T04:20:59.828Z,26.12
2019-02-18T04:22:01.135Z,26.09
2019-02-18T04:23:02.236Z,26.02
2019-02-18T04:24:03.355Z,26.01
2019-02-18T04:25:05.969Z,26.05
2019-02-18T04:26:07.093Z,26.02
2019-02-18T04:27:08.238Z,26.04
2019-02-18T04:28:09.364Z,26.05
2019-02-18T04:29:10.763Z,26.08
2019-02-18T04:30:13.707Z,26.07
2019-02-18T04:31:14.991Z,26.08
2019-02-18T04:32:16.133Z,26.08
2019-02-18T04:33:17.248Z,26.11
2019-02-18T04:34:18.377Z,26.15
2019-02-18T04:35:19.500Z,26.04
2019-02-18T04:36:20.608Z,26.15
2019-02-18T04:37:21.736Z,26.13
2019-02-18T04:38:22.856Z,26.09
2019-02-18T04:39:23.972Z,26.09
2019-02-18T04:40:25.095Z,26.06
2019-02-18T04:41:26.210Z,26.04
2019-02-18T04:42:27.490Z,26.07
2019-02-18T04:43:28.601Z,26.11
2019-02-18T04:44:29.717Z,26.07
2019-02-18T04:45:30.833Z,26.06
2019-02-18T04:46:31.962Z,26.00
2019-02-18T04:47:33.070Z,26.03
2019-02-18T04:48:34.292Z,26.12
2019-02-18T04:49:35.412Z,26.07
2019-02-18T04:50:36.528Z,26.07
2019-02-18T04:51:37.649Z,26.06
2019-02-18T04:52:38.882Z,26.11
2019-02-18T04:53:39.996Z,26.00
2019-02-18T04:54:41.216Z,26.03
2019-02-18T04:55:42.333Z,26.04
2019-02-18T04:56:43.555Z,26.07
2019-02-18T04:57:44.685Z,26.12
2019-02-18T04:58:45.809Z,26.07
2019-02-18T04:59:46.936Z,25.97
2019-02-18T05:00:48.159Z,26.02
2019-02-18T05:01:49.271Z,25.99
2019-02-18T05:02:50.500Z,26.10
2019-02-18T05:03:51.615Z,25.99
2019-02-18T05:04:52.739Z,25.99
2019-02-18T05:05:53.850Z,25.95
2019-02-18T05:06:54.972Z,25.97
2019-02-18T05:07:56.227Z,25.98
2019-02-18T05:09:05.041Z,25.96
2019-02-18T05:10:00.436Z,25.93
2019-02-18T05:11:01.691Z,25.92
2019-02-18T05:12:02.813Z,25.91
2019-02-18T05:13:03.960Z,25.95
2019-02-18T05:14:05.092Z,25.99
2019-02-18T05:15:07.791Z,26.00
2019-02-18T05:16:08.928Z,26.05
2019-02-18T05:17:10.131Z,26.01
2019-02-18T05:18:11.299Z,26.05
2019-02-18T05:19:12.557Z,26.04
2019-02-18T05:20:13.664Z,26.09
2019-02-18T05:21:14.778Z,26.08
2019-02-18T05:22:15.891Z,26.16
2019-02-18T05:23:17.123Z,26.18
2019-02-18T05:24:18.246Z,26.10
2019-02-18T05:25:19.384Z,26.08
2019-02-18T05:26:20.606Z,26.10
2019-02-18T05:27:32.816Z,26.15
2019-02-18T05:28:24.768Z,26.08
2019-02-18T05:29:25.994Z,26.12
2019-02-18T05:30:29.430Z,26.06
2019-02-18T05:31:30.294Z,26.07
2019-02-18T05:32:31.393Z,26.11
2019-02-18T05:33:32.659Z,26.13
2019-02-18T05:34:33.793Z,26.18
2019-02-18T05:35:34.910Z,26.18
2019-02-18T05:36:36.021Z,26.19
2019-02-18T05:37:37.144Z,26.24
2019-02-18T05:38:38.410Z,26.26
2019-02-18T05:39:39.629Z,26.26
2019-02-18T05:40:40.740Z,26.29
2019-02-18T05:41:41.861Z,26.29
2019-02-18T05:42:42.972Z,26.26
2019-02-18T05:43:44.100Z,26.24
2019-02-18T05:44:45.216Z,26.25
2019-02-18T05:45:46.328Z,26.21
2019-02-18T05:46:47.445Z,26.25
2019-02-18T05:47:48.582Z,26.25
2019-02-18T05:48:49.792Z,26.24
2019-02-18T05:49:50.912Z,26.29
2019-02-18T05:50:52.028Z,26.28
2019-02-18T05:51:53.153Z,26.23
2019-02-18T05:52:54.264Z,26.22
2019-02-18T05:53:55.420Z,26.24
2019-02-18T05:54:56.532Z,26.21
2019-02-18T05:55:57.655Z,26.17
2019-02-18T05:56:58.765Z,26.19
2019-02-18T05:57:59.878Z,26.28
2019-02-18T05:59:01.032Z,26.29
2019-02-18T06:00:03.364Z,26.30
2019-02-18T06:01:04.476Z,26.26
2019-02-18T06:02:05.593Z,26.28
2019-02-18T06:03:06.708Z,26.37
2019-02-18T06:04:07.878Z,26.45
2019-02-18T06:05:08.957Z,26.36
2019-02-18T06:06:10.178Z,26.38
2019-02-18T06:07:11.294Z,26.38
2019-02-18T06:08:12.509Z,26.38
2019-02-18T06:09:13.772Z,26.39
2019-02-18T06:10:16.973Z,26.38
2019-02-18T06:11:18.036Z,26.38
2019-02-18T06:12:19.234Z,26.34
2019-02-18T06:13:20.408Z,26.27
2019-02-18T06:14:21.522Z,26.24
2019-02-18T06:15:22.634Z,26.21
2019-02-18T06:16:23.750Z,26.12
2019-02-18T06:17:24.868Z,26.05
2019-02-18T06:18:25.984Z,26.00
2019-02-18T06:19:27.118Z,25.86
2019-02-18T06:20:28.242Z,25.67
2019-02-18T06:21:29.457Z,25.58
2019-02-18T06:22:30.573Z,25.72
2019-02-18T06:23:31.692Z,25.62
2019-02-18T06:24:32.825Z,25.58
2019-02-18T06:25:33.944Z,25.50
2019-02-18T06:26:35.057Z,25.38
2019-02-18T06:27:36.179Z,25.25
2019-02-18T06:28:37.294Z,25.18
2019-02-18T06:29:38.446Z,25.01
2019-02-18T06:30:39.560Z,24.88
2019-02-18T06:31:40.671Z,24.82
2019-02-18T06:32:41.795Z,24.71
2019-02-18T06:33:43.185Z,24.69
2019-02-18T06:34:44.320Z,24.55
2019-02-18T06:35:45.442Z,24.50
2019-02-18T06:36:46.559Z,24.36
2019-02-18T06:37:47.672Z,24.29
2019-02-18T06:38:48.788Z,24.24
2019-02-18T06:39:49.918Z,24.10
2019-02-18T06:40:51.043Z,24.14
2019-02-18T06:41:52.146Z,24.03
2019-02-18T06:42:53.260Z,23.96
2019-02-18T06:43:54.478Z,23.88
2019-02-18T06:44:57.541Z,23.78
2019-02-18T06:46:06.421Z,23.77
2019-02-18T06:47:08.332Z,23.76
2019-02-18T06:48:11.354Z,23.64
2019-02-18T06:49:14.378Z,23.61
2019-02-18T06:50:15.509Z,23.58
2019-02-18T06:51:17.214Z,23.50
2019-02-18T06:52:18.452Z,23.42
2019-02-18T06:53:19.569Z,23.39
2019-02-18T06:54:20.881Z,23.32
2019-02-18T06:55:22.117Z,23.33
2019-02-18T06:56:25.136Z,23.30
2019-02-18T06:57:31.026Z,23.23
2019-02-18T06:58:34.046Z,23.26
2019-02-18T06:59:37.088Z,23.32
2019-02-18T07:00:40.121Z,23.33
2019-02-18T07:01:48.931Z,23.28
2019-02-18T07:02:51.955Z,23.29
2019-02-18T07:03:54.968Z,23.14
2019-02-18T07:05:00.746Z,23.27
2019-02-18T07:06:18.624Z,23.20
2019-02-18T07:07:24.208Z,23.25
2019-02-18T07:08:27.234Z,23.28
2019-02-18T07:09:30.252Z,23.35
2019-02-18T07:10:33.293Z,23.31
2019-02-18T07:11:39.129Z,23.38
2019-02-18T07:12:42.144Z,23.36
2019-02-18T07:13:43.360Z,23.39
2019-02-18T07:14:44.598Z,23.33
2019-02-18T07:15:45.718Z,23.30
2019-02-18T07:16:46.847Z,23.38
2019-02-18T07:17:47.965Z,23.45
2019-02-18T07:18:49.086Z,23.43
2019-02-18T07:19:50.206Z,23.35
2019-02-18T07:20:51.316Z,23.36
2019-02-18T07:21:52.446Z,23.33
2019-02-18T07:22:53.564Z,23.35
2019-02-18T07:23:54.681Z,23.31
2019-02-18T07:24:55.905Z,23.24
2019-02-18T07:25:57.017Z,23.28
2019-02-18T07:26:58.268Z,23.30
2019-02-18T07:27:59.387Z,23.27
2019-02-18T07:29:00.505Z,23.38
2019-02-18T07:30:01.735Z,23.28
2019-02-18T07:31:02.940Z,23.27
2019-02-18T07:32:04.097Z,23.29
2019-02-18T07:33:05.214Z,23.27
2019-02-18T07:34:06.436Z,23.29
2019-02-18T07:35:07.562Z,23.29
2019-02-18T07:36:08.776Z,23.22
2019-02-18T07:37:09.929Z,23.27
2019-02-18T07:38:11.049Z,23.30
2019-02-18T07:39:12.161Z,23.34
2019-02-18T07:40:13.274Z,23.33
2019-02-18T07:41:14.399Z,23.25
2019-02-18T07:42:15.550Z,23.36
2019-02-18T07:43:16.768Z,23.35
2019-02-18T07:44:17.884Z,23.36
2019-02-18T07:45:19.043Z,23.36
2019-02-18T07:46:20.116Z,23.31
2019-02-18T07:47:21.247Z,23.31
2019-02-18T07:48:22.376Z,23.32
2019-02-18T07:49:23.492Z,23.31
2019-02-18T07:50:24.714Z,23.33
2019-02-18T07:51:25.933Z,23.32
2019-02-18T07:52:27.164Z,23.29
2019-02-18T07:53:28.384Z,23.24
2019-02-18T07:54:29.496Z,23.26
2019-02-18T07:55:30.608Z,23.32
2019-02-18T07:56:31.725Z,23.29
2019-02-18T07:57:32.961Z,23.19
2019-02-18T07:58:34.181Z,23.18
2019-02-18T07:59:35.296Z,23.19
2019-02-18T08:00:36.424Z,23.17
2019-02-18T08:01:37.547Z,23.13
2019-02-18T08:02:38.680Z,23.09
2019-02-18T08:03:39.802Z,23.09
2019-02-18T08:04:40.917Z,23.07
2019-02-18T08:05:42.036Z,23.05
2019-02-18T08:06:43.408Z,23.07
2019-02-18T08:07:44.536Z,23.11
2019-02-18T08:08:45.661Z,23.10
2019-02-18T08:09:46.774Z,23.15
2019-02-18T08:10:47.959Z,23.11
2019-02-18T08:11:49.186Z,23.11
2019-02-18T08:12:50.309Z,23.11
2019-02-18T08:13:51.428Z,23.15
2019-02-18T08:14:52.542Z,23.21
2019-02-18T08:15:53.760Z,23.10
2019-02-18T08:16:54.877Z,23.14
2019-02-18T08:17:56.033Z,23.12
2019-02-18T08:18:57.154Z,23.16
2019-02-18T08:19:58.372Z,23.15
2019-02-18T08:20:59.490Z,23.15
2019-02-18T08:22:00.608Z,23.17
2019-02-18T08:23:01.737Z,23.18
2019-02-18T08:24:03.055Z,23.09
2019-02-18T08:25:07.477Z,23.15
2019-02-18T08:26:08.687Z,23.09
2019-02-18T08:27:09.804Z,23.10
2019-02-18T08:28:10.937Z,23.12
2019-02-18T08:29:12.054Z,23.12
2019-02-18T08:30:13.769Z,23.17
2019-02-18T08:31:14.988Z,23.14
2019-02-18T08:32:16.108Z,23.11
2019-02-18T08:33:17.238Z,23.14
2019-02-18T08:34:18.358Z,23.09
2019-02-18T08:35:19.587Z,23.13
2019-02-18T08:36:20.703Z,23.15
2019-02-18T08:37:21.818Z,23.18
2019-02-18T08:38:22.972Z,23.16
2019-02-18T08:39:24.089Z,23.15
2019-02-18T08:40:25.317Z,23.14
2019-02-18T08:41:26.429Z,23.10
2019-02-18T08:42:27.546Z,23.11
2019-02-18T08:43:28.682Z,23.13
2019-02-18T08:44:29.904Z,23.14
2019-02-18T08:45:31.018Z,23.14
2019-02-18T08:46:32.134Z,23.07
2019-02-18T08:47:33.250Z,23.18
2019-02-18T08:48:34.382Z,23.12
2019-02-18T08:49:35.605Z,23.18
2019-02-18T08:50:36.722Z,23.15
2019-02-18T08:51:37.945Z,23.19
2019-02-18T08:52:39.066Z,23.12
2019-02-18T08:53:40.198Z,23.18
2019-02-18T08:54:41.315Z,23.23
2019-02-18T08:55:42.430Z,23.18
2019-02-18T08:56:43.551Z,23.21
2019-02-18T08:57:44.779Z,23.20
2019-02-18T08:58:45.933Z,23.28
2019-02-18T08:59:47.049Z,23.22
2019-02-18T09:00:48.175Z,23.24
2019-02-18T09:01:49.288Z,23.22
2019-02-18T09:02:50.403Z,23.27
2019-02-18T09:03:51.535Z,23.30
2019-02-18T09:04:52.754Z,23.22
2019-02-18T09:05:53.871Z,23.23
2019-02-18T09:06:55.000Z,23.28
2019-02-18T09:07:56.117Z,23.29
2019-02-18T09:08:57.778Z,23.30
2019-02-18T09:09:58.884Z,23.26
2019-02-18T09:10:59.999Z,23.32
2019-02-18T09:12:01.115Z,23.33
2019-02-18T09:13:02.233Z,23.33
2019-02-18T09:14:03.366Z,23.30
2019-02-18T09:15:06.485Z,23.36
2019-02-18T09:16:07.612Z,23.39
2019-02-18T09:17:08.719Z,23.36
2019-02-18T09:18:09.835Z,23.38
2019-02-18T09:19:10.964Z,23.40
2019-02-18T09:20:12.280Z,23.41
2019-02-18T09:21:13.400Z,23.44
2019-02-18T09:22:28.044Z,23.50
2019-02-18T09:23:42.896Z,23.54
2019-02-18T09:24:48.689Z,23.49
2019-02-18T09:25:51.105Z,23.54
2019-02-18T09:26:52.216Z,23.59
2019-02-18T09:27:53.430Z,23.59
2019-02-18T09:28:54.545Z,23.64
2019-02-18T09:29:55.804Z,23.63
2019-02-18T09:30:57.018Z,23.65
2019-02-18T09:31:58.134Z,23.66
2019-02-18T09:32:59.259Z,23.72
2019-02-18T09:34:00.552Z,23.75
2019-02-18T09:35:02.351Z,23.76
2019-02-18T09:36:03.623Z,23.79
2019-02-18T09:37:04.736Z,23.75
2019-02-18T09:38:05.857Z,23.80
2019-02-18T09:39:15.602Z,23.85
2019-02-18T09:40:17.908Z,23.86
2019-02-18T09:41:19.019Z,23.90
2019-02-18T09:42:21.127Z,23.93
2019-02-18T09:43:22.237Z,23.91
2019-02-18T09:44:23.343Z,23.91
2019-02-18T09:45:24.596Z,23.93
2019-02-18T09:46:25.818Z,23.95
2019-02-18T09:47:27.044Z,24.00
2019-02-18T09:48:28.149Z,23.99
2019-02-18T09:49:29.259Z,24.02
2019-02-18T09:50:30.384Z,24.03
2019-02-18T09:51:31.499Z,24.01
2019-02-18T09:52:32.613Z,24.06
2019-02-18T09:53:33.729Z,24.03
2019-02-18T09:54:34.843Z,24.04
2019-02-18T09:55:35.993Z,24.08
2019-02-18T09:56:37.211Z,24.17
2019-02-18T09:57:38.329Z,24.14
2019-02-18T09:58:39.442Z,24.16
2019-02-18T09:59:40.665Z,24.18
2019-02-18T10:00:41.900Z,24.19
2019-02-18T10:01:43.354Z,24.10
2019-02-18T10:02:44.537Z,24.10
2019-02-18T10:03:45.654Z,24.15
2019-02-18T10:04:46.775Z,24.15
2019-02-18T10:05:47.897Z,24.10
2019-02-18T10:06:49.107Z,24.04
2019-02-18T10:07:50.221Z,24.05
2019-02-18T10:08:51.334Z,24.06
2019-02-18T10:09:52.552Z,24.08
2019-02-18T10:10:56.118Z,24.09
2019-02-18T10:11:56.705Z,24.05
2019-02-18T10:12:59.572Z,24.09
2019-02-18T10:14:00.940Z,24.10
2019-02-18T10:15:03.053Z,24.09
2019-02-18T10:16:04.277Z,24.07
2019-02-18T10:17:05.492Z,23.96
2019-02-18T10:18:06.717Z,23.99
2019-02-18T10:19:07.834Z,24.00
2019-02-18T10:20:10.154Z,24.05
2019-02-18T10:21:11.395Z,24.02
2019-02-18T10:22:12.513Z,24.00
2019-02-18T10:23:13.733Z,24.06
2019-02-18T10:24:14.846Z,24.11
2019-02-18T10:25:15.959Z,24.13
2019-02-18T10:26:17.089Z,24.20
2019-02-18T10:27:18.290Z,24.20
2019-02-18T10:28:19.427Z,24.18
2019-02-18T10:29:20.541Z,24.18
2019-02-18T10:30:21.740Z,24.15
2019-02-18T10:31:22.966Z,24.18
2019-02-18T10:32:24.081Z,24.21
2019-02-18T10:33:25.195Z,24.19
2019-02-18T10:34:26.311Z,24.22
2019-02-18T10:35:27.462Z,24.23
2019-02-18T10:36:28.582Z,24.17
2019-02-18T10:37:29.809Z,24.18
2019-02-18T10:38:30.918Z,24.14
2019-02-18T10:39:32.037Z,24.18
2019-02-18T10:40:33.158Z,24.16
2019-02-18T10:41:34.493Z,24.16
2019-02-18T10:42:35.621Z,24.18
2019-02-18T10:43:36.746Z,24.09
2019-02-18T10:44:40.246Z,24.14
2019-02-18T10:45:41.459Z,24.13
2019-02-18T10:46:42.629Z,24.14
2019-02-18T10:47:43.747Z,24.20
2019-02-18T10:48:44.857Z,24.10
2019-02-18T10:49:45.973Z,24.16
2019-02-18T10:50:47.098Z,24.12
2019-02-18T10:51:48.248Z,24.16
2019-02-18T10:52:49.364Z,24.09
2019-02-18T10:53:50.890Z,24.15
2019-02-18T10:54:51.998Z,24.08
2019-02-18T10:55:53.114Z,24.06
2019-02-18T10:56:54.277Z,24.08
2019-02-18T10:57:55.389Z,24.15
2019-02-18T10:58:56.501Z,24.16
2019-02-18T10:59:59.303Z,24.16
2019-02-18T11:01:00.670Z,24.11
2019-02-18T11:02:01.781Z,24.09
2019-02-18T11:03:03.299Z,24.09
2019-02-18T11:04:04.523Z,24.04
2019-02-18T11:05:06.434Z,24.03
2019-02-18T11:06:09.365Z,24.09
2019-02-18T11:07:10.720Z,24.04
2019-02-18T11:08:11.836Z,24.08
2019-02-18T11:09:12.961Z,24.17
2019-02-18T11:10:15.167Z,24.09
2019-02-18T11:11:17.251Z,24.11
2019-02-18T11:12:18.725Z,24.17
2019-02-18T11:13:19.845Z,24.17
2019-02-18T11:14:21.090Z,24.13
2019-02-18T11:15:22.185Z,24.17
2019-02-18T11:16:23.410Z,24.18
2019-02-18T11:17:24.963Z,24.13
2019-02-18T11:18:26.184Z,24.17
2019-02-18T11:19:27.301Z,24.16
2019-02-18T11:20:28.422Z,24.21
2019-02-18T11:21:29.637Z,24.14
2019-02-18T11:22:30.768Z,24.16
2019-02-18T11:23:31.886Z,24.21
2019-02-18T11:24:33.002Z,24.23
2019-02-18T11:25:34.223Z,24.29
2019-02-18T11:26:35.850Z,24.26
2019-02-18T11:27:36.986Z,24.27
2019-02-18T11:28:38.084Z,24.29
2019-02-18T11:29:39.202Z,24.27
2019-02-18T11:30:40.413Z,24.21
2019-02-18T11:31:41.531Z,24.25
2019-02-18T11:32:42.986Z,24.24
2019-02-18T11:33:44.115Z,24.27
2019-02-18T11:34:45.220Z,24.27
2019-02-18T11:35:46.453Z,24.30
2019-02-18T11:36:47.587Z,24.29
2019-02-18T11:37:48.870Z,24.31
2019-02-18T11:38:49.984Z,24.36
2019-02-18T11:39:51.101Z,24.33
2019-02-18T11:40:52.213Z,24.32
2019-02-18T11:41:53.329Z,24.33
2019-02-18T11:42:54.461Z,24.35
2019-02-18T11:43:55.681Z,24.27
2019-02-18T11:44:56.796Z,24.28
2019-02-18T11:45:58.208Z,24.30
2019-02-18T11:46:59.885Z,24.30
2019-02-18T11:48:01.008Z,24.32
2019-02-18T11:49:02.225Z,24.29
2019-02-18T11:50:06.132Z,24.29
2019-02-18T11:51:07.354Z,24.29
2019-02-18T11:52:08.666Z,24.25
2019-02-18T11:53:09.797Z,24.29
2019-02-18T11:54:10.921Z,24.28
2019-02-18T11:55:12.878Z,24.31
2019-02-18T11:56:14.444Z,24.25
2019-02-18T11:57:15.558Z,24.28
2019-02-18T11:58:16.715Z,24.21
2019-02-18T11:59:24.224Z,24.20
2019-02-18T12:00:20.854Z,24.12
2019-02-18T12:01:21.968Z,24.14
2019-02-18T12:02:23.081Z,24.14
2019-02-18T12:03:24.319Z,24.21
2019-02-18T12:04:25.574Z,24.22
2019-02-18T12:05:27.156Z,24.25
2019-02-18T12:06:28.377Z,24.18
2019-02-18T12:07:29.492Z,24.25
2019-02-18T12:08:30.644Z,24.27
2019-02-18T12:09:31.864Z,24.23
2019-02-18T12:10:33.081Z,24.18
2019-02-18T12:11:37.969Z,24.21
2019-02-18T12:12:37.325Z,24.27
2019-02-18T12:13:38.458Z,24.26
2019-02-18T12:14:39.974Z,24.24
2019-02-18T12:15:41.124Z,24.28
2019-02-18T12:16:42.242Z,24.25
2019-02-18T12:17:43.466Z,24.32
2019-02-18T12:18:44.601Z,24.31
2019-02-18T12:19:45.717Z,24.37
2019-02-18T12:20:46.932Z,24.37
2019-02-18T12:21:48.151Z,24.30
2019-02-18T12:22:49.468Z,24.27
2019-02-18T12:23:50.634Z,24.29
2019-02-18T12:24:51.750Z,24.35
2019-02-18T12:25:52.869Z,24.37
2019-02-18T12:26:53.989Z,24.37
2019-02-18T12:27:55.206Z,24.37
2019-02-18T12:28:56.337Z,24.38
2019-02-18T12:29:57.458Z,24.34
2019-02-18T12:30:58.580Z,24.38
2019-02-18T12:32:00.090Z,24.38
2019-02-18T12:33:01.212Z,24.37
2019-02-18T12:34:02.329Z,24.43
2019-02-18T12:35:05.221Z,24.41
2019-02-18T12:36:06.474Z,24.38
2019-02-18T12:37:07.618Z,24.35
2019-02-18T12:38:08.940Z,24.41
2019-02-18T12:39:11.987Z,24.42
2019-02-18T12:40:13.105Z,24.38
2019-02-18T12:41:14.225Z,24.41
2019-02-18T12:42:15.852Z,24.39
2019-02-18T12:43:16.968Z,24.42
2019-02-18T12:44:18.197Z,24.42
2019-02-18T12:45:19.320Z,24.42
2019-02-18T12:46:20.439Z,24.39
2019-02-18T12:47:21.556Z,24.40
2019-02-18T12:48:22.778Z,24.38
2019-02-18T12:49:24.060Z,24.42
2019-02-18T12:50:25.195Z,24.37
2019-02-18T12:51:26.808Z,24.36
2019-02-18T12:52:27.922Z,24.36
2019-02-18T12:53:29.032Z,24.35
2019-02-18T12:54:30.170Z,24.26
2019-02-18T12:55:31.585Z,24.32
2019-02-18T12:56:33.003Z,24.36
2019-02-18T12:57:34.117Z,24.28
2019-02-18T12:58:35.236Z,24.31
2019-02-18T12:59:36.816Z,24.27
2019-02-18T13:00:38.066Z,24.23
2019-02-18T13:01:39.179Z,24.28
2019-02-18T13:02:44.100Z,24.30
2019-02-18T13:03:44.027Z,24.32
2019-02-18T13:04:45.152Z,24.32
2019-02-18T13:05:46.444Z,24.28
2019-02-18T13:06:47.561Z,24.27
2019-02-18T13:07:48.981Z,24.27
2019-02-18T13:08:50.101Z,24.27
2019-02-18T13:09:51.229Z,24.30
2019-02-18T13:10:52.452Z,24.34
2019-02-18T13:11:58.970Z,24.35